sensor_id;sensor_type;location;lat;lon;timestamp;P1;durP1;ratioP1;P2;durP2;ratioP2
60464;SDS011;46314;52.392;9.758;2024-02-28T00:02:13;14.82;;;12.48;;
60464;SDS011;46314;52.392;9.758;2024-02-28T00:04:41;15.45;;;12.90;;
60464;SDS011;46314;52.392;9.758;2024-02-28T00:07:07;18.73;;;14.02;;
60464;SDS011;46314;52.392;9.758;2024-02-28T00:09:34;16.25;;;13.73;;
60464;SDS011;46314;52.392;9.758;2024-02-28T00:12:00;19.83;;;15.20;;
60464;SDS011;46314;52.392;9.758;2024-02-28T00:14:27;18.45;;;14.88;;
60464;SDS011;46314;52.392;9.758;2024-02-28T00:16:53;17.83;;;14.10;;
60464;SDS011;46314;52.392;9.758;2024-02-28T00:19:20;17.45;;;13.82;;
60464;SDS011;46314;52.392;9.758;2024-02-28T00:21:48;16.20;;;13.32;;
60464;SDS011;46314;52.392;9.758;2024-02-28T00:24:14;15.52;;;13.80;;
60464;SDS011;46314;52.392;9.758;2024-02-28T00:26:41;15.75;;;13.30;;
60464;SDS011;46314;52.392;9.758;2024-02-28T00:29:08;20.60;;;14.60;;
60464;SDS011;46314;52.392;9.758;2024-02-28T00:31:34;16.45;;;13.82;;
60464;SDS011;46314;52.392;9.758;2024-02-28T00:34:01;16.88;;;14.43;;
60464;SDS011;46314;52.392;9.758;2024-02-28T00:36:27;17.02;;;14.13;;
60464;SDS011;46314;52.392;9.758;2024-02-28T00:39:06;17.65;;;14.45;;
60464;SDS011;46314;52.392;9.758;2024-02-28T00:41:32;17.52;;;14.15;;
60464;SDS011;46314;52.392;9.758;2024-02-28T00:43:59;16.77;;;14.75;;
60464;SDS011;46314;52.392;9.758;2024-02-28T00:46:25;16.75;;;13.93;;
60464;SDS011;46314;52.392;9.758;2024-02-28T00:48:52;18.42;;;14.73;;
60464;SDS011;46314;52.392;9.758;2024-02-28T00:51:18;16.27;;;13.50;;
60464;SDS011;46314;52.392;9.758;2024-02-28T00:53:45;17.27;;;13.13;;
60464;SDS011;46314;52.392;9.758;2024-02-28T00:56:13;16.98;;;13.35;;
60464;SDS011;46314;52.392;9.758;2024-02-28T00:58:39;16.75;;;12.77;;
60464;SDS011;46314;52.392;9.758;2024-02-28T01:01:06;19.15;;;13.55;;
60464;SDS011;46314;52.392;9.758;2024-02-28T01:03:32;15.90;;;13.25;;
60464;SDS011;46314;52.392;9.758;2024-02-28T01:05:59;16.00;;;13.20;;
60464;SDS011;46314;52.392;9.758;2024-02-28T01:08:25;18.15;;;13.80;;
60464;SDS011;46314;52.392;9.758;2024-02-28T01:10:52;16.42;;;14.10;;
60464;SDS011;46314;52.392;9.758;2024-02-28T01:13:20;17.50;;;14.02;;
60464;SDS011;46314;52.392;9.758;2024-02-28T01:15:46;17.50;;;13.73;;
60464;SDS011;46314;52.392;9.758;2024-02-28T01:18:13;17.17;;;13.63;;
60464;SDS011;46314;52.392;9.758;2024-02-28T01:20:39;14.30;;;12.75;;
60464;SDS011;46314;52.392;9.758;2024-02-28T01:23:06;15.25;;;13.43;;
60464;SDS011;46314;52.392;9.758;2024-02-28T01:25:32;20.17;;;13.70;;
60464;SDS011;46314;52.392;9.758;2024-02-28T01:27:59;16.38;;;13.63;;
60464;SDS011;46314;52.392;9.758;2024-02-28T01:30:27;17.55;;;14.65;;
60464;SDS011;46314;52.392;9.758;2024-02-28T01:32:53;17.02;;;13.63;;
60464;SDS011;46314;52.392;9.758;2024-02-28T01:35:20;17.33;;;14.20;;
60464;SDS011;46314;52.392;9.758;2024-02-28T01:37:46;15.27;;;13.68;;
60464;SDS011;46314;52.392;9.758;2024-02-28T01:40:13;16.65;;;14.70;;
60464;SDS011;46314;52.392;9.758;2024-02-28T01:42:40;16.80;;;14.13;;
60464;SDS011;46314;52.392;9.758;2024-02-28T01:45:06;16.80;;;13.65;;
60464;SDS011;46314;52.392;9.758;2024-02-28T01:47:37;15.82;;;14.10;;
60464;SDS011;46314;52.392;9.758;2024-02-28T01:50:04;15.30;;;13.52;;
60464;SDS011;46314;52.392;9.758;2024-02-28T01:52:31;15.93;;;12.93;;
60464;SDS011;46314;52.392;9.758;2024-02-28T01:54:58;17.23;;;13.75;;
60464;SDS011;46314;52.392;9.758;2024-02-28T01:57:24;16.98;;;14.02;;
60464;SDS011;46314;52.392;9.758;2024-02-28T01:59:51;17.70;;;14.32;;
60464;SDS011;46314;52.392;9.758;2024-02-28T02:02:19;18.45;;;14.32;;
60464;SDS011;46314;52.392;9.758;2024-02-28T02:04:46;16.02;;;13.43;;
60464;SDS011;46314;52.392;9.758;2024-02-28T02:07:13;18.17;;;15.07;;
60464;SDS011;46314;52.392;9.758;2024-02-28T02:09:39;17.50;;;14.85;;
60464;SDS011;46314;52.392;9.758;2024-02-28T02:12:06;18.05;;;14.48;;
60464;SDS011;46314;52.392;9.758;2024-02-28T02:14:33;18.63;;;15.43;;
60464;SDS011;46314;52.392;9.758;2024-02-28T02:17:00;19.77;;;15.85;;
60464;SDS011;46314;52.392;9.758;2024-02-28T02:19:26;17.70;;;14.45;;
60464;SDS011;46314;52.392;9.758;2024-02-28T02:21:58;20.95;;;15.80;;
60464;SDS011;46314;52.392;9.758;2024-02-28T02:24:26;19.92;;;16.33;;
60464;SDS011;46314;52.392;9.758;2024-02-28T02:26:54;19.30;;;14.82;;
60464;SDS011;46314;52.392;9.758;2024-02-28T02:29:21;21.50;;;17.60;;
60464;SDS011;46314;52.392;9.758;2024-02-28T02:31:48;23.63;;;16.98;;
60464;SDS011;46314;52.392;9.758;2024-02-28T02:34:14;20.23;;;16.35;;
60464;SDS011;46314;52.392;9.758;2024-02-28T02:36:41;21.10;;;16.08;;
60464;SDS011;46314;52.392;9.758;2024-02-28T02:39:07;19.58;;;16.88;;
60464;SDS011;46314;52.392;9.758;2024-02-28T02:41:35;23.45;;;16.83;;
60464;SDS011;46314;52.392;9.758;2024-02-28T02:44:01;20.52;;;16.63;;
60464;SDS011;46314;52.392;9.758;2024-02-28T02:46:28;23.23;;;18.42;;
60464;SDS011;46314;52.392;9.758;2024-02-28T02:48:54;23.88;;;18.35;;
60464;SDS011;46314;52.392;9.758;2024-02-28T02:51:21;21.83;;;16.73;;
60464;SDS011;46314;52.392;9.758;2024-02-28T02:53:48;21.58;;;16.90;;
60464;SDS011;46314;52.392;9.758;2024-02-28T02:56:14;22.65;;;17.73;;
60464;SDS011;46314;52.392;9.758;2024-02-28T02:58:42;23.55;;;17.50;;
60464;SDS011;46314;52.392;9.758;2024-02-28T03:01:08;22.25;;;17.90;;
60464;SDS011;46314;52.392;9.758;2024-02-28T03:03:35;22.08;;;17.95;;
60464;SDS011;46314;52.392;9.758;2024-02-28T03:06:01;23.08;;;16.75;;
60464;SDS011;46314;52.392;9.758;2024-02-28T03:08:28;20.65;;;17.75;;
60464;SDS011;46314;52.392;9.758;2024-02-28T03:10:55;22.25;;;17.40;;
60464;SDS011;46314;52.392;9.758;2024-02-28T03:13:21;22.80;;;17.80;;
60464;SDS011;46314;52.392;9.758;2024-02-28T03:15:49;23.55;;;16.77;;
60464;SDS011;46314;52.392;9.758;2024-02-28T03:18:15;24.15;;;17.40;;
60464;SDS011;46314;52.392;9.758;2024-02-28T03:20:42;23.98;;;17.52;;
60464;SDS011;46314;52.392;9.758;2024-02-28T03:23:09;24.92;;;19.05;;
60464;SDS011;46314;52.392;9.758;2024-02-28T03:25:35;23.70;;;17.92;;
60464;SDS011;46314;52.392;9.758;2024-02-28T03:28:02;27.23;;;19.05;;
60464;SDS011;46314;52.392;9.758;2024-02-28T03:30:29;21.90;;;17.73;;
60464;SDS011;46314;52.392;9.758;2024-02-28T03:32:57;23.23;;;18.13;;
60464;SDS011;46314;52.392;9.758;2024-02-28T03:35:23;25.67;;;18.58;;
60464;SDS011;46314;52.392;9.758;2024-02-28T03:37:50;20.00;;;15.95;;
60464;SDS011;46314;52.392;9.758;2024-02-28T03:40:16;23.38;;;17.75;;
60464;SDS011;46314;52.392;9.758;2024-02-28T03:42:42;23.35;;;17.50;;
60464;SDS011;46314;52.392;9.758;2024-02-28T03:45:09;22.90;;;17.55;;
60464;SDS011;46314;52.392;9.758;2024-02-28T03:47:36;22.52;;;17.30;;
60464;SDS011;46314;52.392;9.758;2024-02-28T03:50:04;24.02;;;17.50;;
60464;SDS011;46314;52.392;9.758;2024-02-28T03:52:31;24.42;;;18.85;;
60464;SDS011;46314;52.392;9.758;2024-02-28T03:54:58;25.20;;;19.40;;
60464;SDS011;46314;52.392;9.758;2024-02-28T03:57:24;24.05;;;19.30;;
60464;SDS011;46314;52.392;9.758;2024-02-28T03:59:51;23.85;;;18.58;;
60464;SDS011;46314;52.392;9.758;2024-02-28T04:02:17;24.00;;;18.83;;
60464;SDS011;46314;52.392;9.758;2024-02-28T04:04:44;25.77;;;18.40;;
60464;SDS011;46314;52.392;9.758;2024-02-28T04:07:12;25.92;;;18.25;;
60464;SDS011;46314;52.392;9.758;2024-02-28T04:09:38;27.83;;;19.42;;
60464;SDS011;46314;52.392;9.758;2024-02-28T04:12:05;26.60;;;19.67;;
60464;SDS011;46314;52.392;9.758;2024-02-28T04:14:32;26.67;;;19.02;;
60464;SDS011;46314;52.392;9.758;2024-02-28T04:16:58;26.52;;;20.10;;
60464;SDS011;46314;52.392;9.758;2024-02-28T04:19:25;27.73;;;19.92;;
60464;SDS011;46314;52.392;9.758;2024-02-28T04:21:51;23.98;;;19.00;;
60464;SDS011;46314;52.392;9.758;2024-02-28T04:24:19;28.70;;;19.33;;
60464;SDS011;46314;52.392;9.758;2024-02-28T04:26:46;23.63;;;17.80;;
60464;SDS011;46314;52.392;9.758;2024-02-28T04:29:12;24.98;;;18.55;;
60464;SDS011;46314;52.392;9.758;2024-02-28T04:31:39;27.30;;;19.10;;
60464;SDS011;46314;52.392;9.758;2024-02-28T04:34:05;28.67;;;19.85;;
60464;SDS011;46314;52.392;9.758;2024-02-28T04:36:32;26.13;;;19.38;;
60464;SDS011;46314;52.392;9.758;2024-02-28T04:38:58;23.30;;;17.90;;
60464;SDS011;46314;52.392;9.758;2024-02-28T04:41:26;24.08;;;18.15;;
60464;SDS011;46314;52.392;9.758;2024-02-28T04:43:53;28.00;;;19.17;;
60464;SDS011;46314;52.392;9.758;2024-02-28T04:46:19;26.80;;;19.23;;
60464;SDS011;46314;52.392;9.758;2024-02-28T04:48:45;29.15;;;20.67;;
60464;SDS011;46314;52.392;9.758;2024-02-28T04:51:14;23.95;;;17.70;;
60464;SDS011;46314;52.392;9.758;2024-02-28T04:53:41;26.83;;;19.42;;
60464;SDS011;46314;52.392;9.758;2024-02-28T04:56:08;25.33;;;19.65;;
60464;SDS011;46314;52.392;9.758;2024-02-28T04:58:36;27.90;;;19.38;;
60464;SDS011;46314;52.392;9.758;2024-02-28T05:01:03;29.13;;;20.65;;
60464;SDS011;46314;52.392;9.758;2024-02-28T05:03:29;26.33;;;19.40;;
60464;SDS011;46314;52.392;9.758;2024-02-28T05:05:56;26.15;;;18.95;;
60464;SDS011;46314;52.392;9.758;2024-02-28T05:08:22;28.90;;;20.25;;
60464;SDS011;46314;52.392;9.758;2024-02-28T05:10:49;27.10;;;19.23;;
60464;SDS011;46314;52.392;9.758;2024-02-28T05:13:16;23.67;;;17.52;;
60464;SDS011;46314;52.392;9.758;2024-02-28T05:15:43;26.33;;;20.25;;
60464;SDS011;46314;52.392;9.758;2024-02-28T05:18:10;27.10;;;20.50;;
60464;SDS011;46314;52.392;9.758;2024-02-28T05:20:36;29.58;;;20.58;;
60464;SDS011;46314;52.392;9.758;2024-02-28T05:23:03;28.73;;;20.25;;
60464;SDS011;46314;52.392;9.758;2024-02-28T05:25:29;27.40;;;19.00;;
60464;SDS011;46314;52.392;9.758;2024-02-28T05:27:56;25.15;;;19.00;;
60464;SDS011;46314;52.392;9.758;2024-02-28T05:30:22;25.17;;;19.88;;
60464;SDS011;46314;52.392;9.758;2024-02-28T05:32:50;26.08;;;20.10;;
60464;SDS011;46314;52.392;9.758;2024-02-28T05:35:17;24.40;;;19.65;;
60464;SDS011;46314;52.392;9.758;2024-02-28T05:37:43;27.67;;;20.55;;
60464;SDS011;46314;52.392;9.758;2024-02-28T05:40:10;25.95;;;19.00;;
60464;SDS011;46314;52.392;9.758;2024-02-28T05:42:36;25.52;;;19.55;;
60464;SDS011;46314;52.392;9.758;2024-02-28T05:45:03;27.90;;;21.17;;
60464;SDS011;46314;52.392;9.758;2024-02-28T05:47:31;27.88;;;20.33;;
60464;SDS011;46314;52.392;9.758;2024-02-28T05:49:58;26.23;;;19.02;;
60464;SDS011;46314;52.392;9.758;2024-02-28T05:52:25;28.20;;;20.63;;
60464;SDS011;46314;52.392;9.758;2024-02-28T05:54:51;26.75;;;19.63;;
60464;SDS011;46314;52.392;9.758;2024-02-28T05:57:18;27.40;;;19.55;;
60464;SDS011;46314;52.392;9.758;2024-02-28T05:59:44;29.70;;;21.30;;
60464;SDS011;46314;52.392;9.758;2024-02-28T06:02:11;28.88;;;20.83;;
60464;SDS011;46314;52.392;9.758;2024-02-28T06:04:37;28.33;;;20.40;;
60464;SDS011;46314;52.392;9.758;2024-02-28T06:07:05;27.20;;;19.95;;
60464;SDS011;46314;52.392;9.758;2024-02-28T06:09:32;28.13;;;19.17;;
60464;SDS011;46314;52.392;9.758;2024-02-28T06:11:58;26.55;;;19.40;;
60464;SDS011;46314;52.392;9.758;2024-02-28T06:14:26;27.80;;;19.77;;
60464;SDS011;46314;52.392;9.758;2024-02-28T06:16:52;27.02;;;20.88;;
60464;SDS011;46314;52.392;9.758;2024-02-28T06:19:19;32.20;;;21.05;;
60464;SDS011;46314;52.392;9.758;2024-02-28T06:21:45;32.05;;;21.95;;
60464;SDS011;46314;52.392;9.758;2024-02-28T06:24:13;28.90;;;21.20;;
60464;SDS011;46314;52.392;9.758;2024-02-28T06:26:40;29.98;;;20.48;;
60464;SDS011;46314;52.392;9.758;2024-02-28T06:29:06;31.58;;;23.13;;
60464;SDS011;46314;52.392;9.758;2024-02-28T06:31:33;35.53;;;22.58;;
60464;SDS011;46314;52.392;9.758;2024-02-28T06:33:59;33.80;;;24.08;;
60464;SDS011;46314;52.392;9.758;2024-02-28T06:36:26;31.58;;;22.15;;
60464;SDS011;46314;52.392;9.758;2024-02-28T06:38:52;31.15;;;21.83;;
60464;SDS011;46314;52.392;9.758;2024-02-28T06:41:20;32.85;;;22.52;;
60464;SDS011;46314;52.392;9.758;2024-02-28T06:43:47;35.90;;;24.55;;
60464;SDS011;46314;52.392;9.758;2024-02-28T06:46:14;34.85;;;24.58;;
60464;SDS011;46314;52.392;9.758;2024-02-28T06:48:41;33.15;;;24.63;;
60464;SDS011;46314;52.392;9.758;2024-02-28T06:51:07;33.75;;;23.33;;
60464;SDS011;46314;52.392;9.758;2024-02-28T06:53:34;36.83;;;24.67;;
60464;SDS011;46314;52.392;9.758;2024-02-28T06:56:01;32.75;;;23.48;;
60464;SDS011;46314;52.392;9.758;2024-02-28T06:58:29;37.08;;;24.60;;
60464;SDS011;46314;52.392;9.758;2024-02-28T07:00:56;34.30;;;24.45;;
60464;SDS011;46314;52.392;9.758;2024-02-28T07:03:25;33.38;;;24.35;;
60464;SDS011;46314;52.392;9.758;2024-02-28T07:05:52;36.05;;;23.33;;
60464;SDS011;46314;52.392;9.758;2024-02-28T07:08:18;34.33;;;24.83;;
60464;SDS011;46314;52.392;9.758;2024-02-28T07:10:45;36.33;;;24.85;;
60464;SDS011;46314;52.392;9.758;2024-02-28T07:13:11;37.80;;;25.55;;
60464;SDS011;46314;52.392;9.758;2024-02-28T07:15:39;34.05;;;23.80;;
60464;SDS011;46314;52.392;9.758;2024-02-28T07:18:06;33.25;;;24.27;;
60464;SDS011;46314;52.392;9.758;2024-02-28T07:20:33;34.00;;;24.92;;
60464;SDS011;46314;52.392;9.758;2024-02-28T07:22:59;36.38;;;26.30;;
60464;SDS011;46314;52.392;9.758;2024-02-28T07:25:26;35.03;;;24.70;;
60464;SDS011;46314;52.392;9.758;2024-02-28T07:27:52;34.28;;;23.77;;
60464;SDS011;46314;52.392;9.758;2024-02-28T07:30:19;35.03;;;25.35;;
60464;SDS011;46314;52.392;9.758;2024-02-28T07:32:47;36.10;;;24.92;;
60464;SDS011;46314;52.392;9.758;2024-02-28T07:35:16;33.30;;;24.35;;
60464;SDS011;46314;52.392;9.758;2024-02-28T07:37:42;35.83;;;25.30;;
60464;SDS011;46314;52.392;9.758;2024-02-28T07:40:09;40.17;;;26.65;;
60464;SDS011;46314;52.392;9.758;2024-02-28T07:42:36;36.78;;;25.50;;
60464;SDS011;46314;52.392;9.758;2024-02-28T07:45:03;35.47;;;25.38;;
60464;SDS011;46314;52.392;9.758;2024-02-28T07:47:30;41.05;;;27.58;;
60464;SDS011;46314;52.392;9.758;2024-02-28T07:49:58;40.53;;;27.23;;
60464;SDS011;46314;52.392;9.758;2024-02-28T07:52:24;37.20;;;27.52;;
60464;SDS011;46314;52.392;9.758;2024-02-28T07:54:50;41.30;;;26.63;;
60464;SDS011;46314;52.392;9.758;2024-02-28T07:57:19;40.47;;;26.48;;
60464;SDS011;46314;52.392;9.758;2024-02-28T07:59:46;43.15;;;28.45;;
60464;SDS011;46314;52.392;9.758;2024-02-28T08:02:12;37.97;;;25.83;;
60464;SDS011;46314;52.392;9.758;2024-02-28T08:04:42;40.90;;;27.27;;
60464;SDS011;46314;52.392;9.758;2024-02-28T08:07:09;38.47;;;27.10;;
60464;SDS011;46314;52.392;9.758;2024-02-28T08:09:36;37.33;;;27.85;;
60464;SDS011;46314;52.392;9.758;2024-02-28T08:12:06;40.30;;;28.08;;
60464;SDS011;46314;52.392;9.758;2024-02-28T08:14:32;40.35;;;28.08;;
60464;SDS011;46314;52.392;9.758;2024-02-28T08:16:59;38.50;;;26.88;;
60464;SDS011;46314;52.392;9.758;2024-02-28T08:19:25;39.03;;;27.42;;
60464;SDS011;46314;52.392;9.758;2024-02-28T08:21:52;39.38;;;28.02;;
60464;SDS011;46314;52.392;9.758;2024-02-28T08:24:20;37.53;;;26.27;;
60464;SDS011;46314;52.392;9.758;2024-02-28T08:26:47;39.72;;;27.05;;
60464;SDS011;46314;52.392;9.758;2024-02-28T08:29:13;38.85;;;27.98;;
60464;SDS011;46314;52.392;9.758;2024-02-28T08:31:40;38.25;;;27.90;;
60464;SDS011;46314;52.392;9.758;2024-02-28T08:34:07;41.38;;;27.75;;
60464;SDS011;46314;52.392;9.758;2024-02-28T08:36:35;40.75;;;28.10;;
60464;SDS011;46314;52.392;9.758;2024-02-28T08:39:01;41.00;;;28.10;;
60464;SDS011;46314;52.392;9.758;2024-02-28T08:41:29;40.40;;;27.25;;
60464;SDS011;46314;52.392;9.758;2024-02-28T08:43:57;37.25;;;27.13;;
60464;SDS011;46314;52.392;9.758;2024-02-28T08:46:23;41.75;;;28.85;;
60464;SDS011;46314;52.392;9.758;2024-02-28T08:48:50;43.35;;;30.95;;
60464;SDS011;46314;52.392;9.758;2024-02-28T08:51:16;39.67;;;28.13;;
60464;SDS011;46314;52.392;9.758;2024-02-28T08:53:43;41.42;;;28.55;;
60464;SDS011;46314;52.392;9.758;2024-02-28T08:56:09;46.88;;;30.70;;
60464;SDS011;46314;52.392;9.758;2024-02-28T08:58:37;42.97;;;29.85;;
60464;SDS011;46314;52.392;9.758;2024-02-28T09:01:04;38.85;;;29.00;;
60464;SDS011;46314;52.392;9.758;2024-02-28T09:03:30;40.50;;;27.33;;
60464;SDS011;46314;52.392;9.758;2024-02-28T09:05:57;44.20;;;29.75;;
60464;SDS011;46314;52.392;9.758;2024-02-28T09:08:23;41.33;;;28.00;;
60464;SDS011;46314;52.392;9.758;2024-02-28T09:10:50;40.85;;;28.02;;
60464;SDS011;46314;52.392;9.758;2024-02-28T09:13:16;44.22;;;29.25;;
60464;SDS011;46314;52.392;9.758;2024-02-28T09:15:44;41.92;;;29.10;;
60464;SDS011;46314;52.392;9.758;2024-02-28T09:18:10;40.08;;;28.55;;
60464;SDS011;46314;52.392;9.758;2024-02-28T09:20:37;42.13;;;29.15;;
60464;SDS011;46314;52.392;9.758;2024-02-28T09:23:03;44.92;;;28.88;;
60464;SDS011;46314;52.392;9.758;2024-02-28T09:25:31;42.83;;;28.60;;
60464;SDS011;46314;52.392;9.758;2024-02-28T09:27:57;42.30;;;28.70;;
60464;SDS011;46314;52.392;9.758;2024-02-28T09:30:24;37.03;;;27.65;;
60464;SDS011;46314;52.392;9.758;2024-02-28T09:32:59;42.30;;;28.40;;
60464;SDS011;46314;52.392;9.758;2024-02-28T09:35:25;39.10;;;26.10;;
60464;SDS011;46314;52.392;9.758;2024-02-28T09:37:52;38.10;;;26.83;;
60464;SDS011;46314;52.392;9.758;2024-02-28T09:40:18;40.10;;;28.10;;
60464;SDS011;46314;52.392;9.758;2024-02-28T09:42:46;36.13;;;26.70;;
60464;SDS011;46314;52.392;9.758;2024-02-28T09:45:17;39.00;;;28.23;;
60464;SDS011;46314;52.392;9.758;2024-02-28T09:47:46;40.88;;;29.33;;
60464;SDS011;46314;52.392;9.758;2024-02-28T09:50:14;41.90;;;28.90;;
60464;SDS011;46314;52.392;9.758;2024-02-28T09:52:41;37.17;;;25.90;;
60464;SDS011;46314;52.392;9.758;2024-02-28T09:55:12;36.80;;;26.80;;
60464;SDS011;46314;52.392;9.758;2024-02-28T09:57:38;37.83;;;26.48;;
60464;SDS011;46314;52.392;9.758;2024-02-28T10:00:05;37.55;;;26.50;;
60464;SDS011;46314;52.392;9.758;2024-02-28T10:02:33;37.40;;;26.23;;
60464;SDS011;46314;52.392;9.758;2024-02-28T10:05:00;38.33;;;26.42;;
60464;SDS011;46314;52.392;9.758;2024-02-28T10:07:28;39.38;;;27.42;;
60464;SDS011;46314;52.392;9.758;2024-02-28T10:09:55;36.22;;;25.42;;
60464;SDS011;46314;52.392;9.758;2024-02-28T10:12:21;37.83;;;26.67;;
60464;SDS011;46314;52.392;9.758;2024-02-28T10:14:49;37.35;;;26.42;;
60464;SDS011;46314;52.392;9.758;2024-02-28T10:17:15;34.75;;;26.08;;
60464;SDS011;46314;52.392;9.758;2024-02-28T10:19:42;36.65;;;27.65;;
60464;SDS011;46314;52.392;9.758;2024-02-28T10:22:11;33.15;;;25.13;;
60464;SDS011;46314;52.392;9.758;2024-02-28T10:24:39;35.67;;;26.83;;
60464;SDS011;46314;52.392;9.758;2024-02-28T10:27:06;33.75;;;25.02;;
60464;SDS011;46314;52.392;9.758;2024-02-28T10:29:32;34.05;;;25.35;;
60464;SDS011;46314;52.392;9.758;2024-02-28T10:31:59;38.65;;;26.65;;
60464;SDS011;46314;52.392;9.758;2024-02-28T10:34:25;33.58;;;26.25;;
60464;SDS011;46314;52.392;9.758;2024-02-28T10:36:52;34.05;;;25.33;;
60464;SDS011;46314;52.392;9.758;2024-02-28T10:39:18;39.50;;;27.13;;
60464;SDS011;46314;52.392;9.758;2024-02-28T10:41:49;37.90;;;28.60;;
60464;SDS011;46314;52.392;9.758;2024-02-28T10:44:17;36.55;;;28.60;;
60464;SDS011;46314;52.392;9.758;2024-02-28T10:46:44;38.60;;;29.27;;
60464;SDS011;46314;52.392;9.758;2024-02-28T10:49:14;38.83;;;27.95;;
60464;SDS011;46314;52.392;9.758;2024-02-28T10:51:41;37.78;;;26.83;;
60464;SDS011;46314;52.392;9.758;2024-02-28T10:54:12;38.53;;;28.55;;
60464;SDS011;46314;52.392;9.758;2024-02-28T10:56:42;37.53;;;28.00;;
60464;SDS011;46314;52.392;9.758;2024-02-28T10:59:11;44.45;;;30.13;;
60464;SDS011;46314;52.392;9.758;2024-02-28T11:01:38;38.55;;;28.52;;
60464;SDS011;46314;52.392;9.758;2024-02-28T11:04:07;40.25;;;29.58;;
60464;SDS011;46314;52.392;9.758;2024-02-28T11:06:34;41.33;;;29.83;;
60464;SDS011;46314;52.392;9.758;2024-02-28T11:09:01;41.88;;;30.27;;
60464;SDS011;46314;52.392;9.758;2024-02-28T11:11:29;42.28;;;29.25;;
60464;SDS011;46314;52.392;9.758;2024-02-28T11:13:57;43.20;;;29.50;;
60464;SDS011;46314;52.392;9.758;2024-02-28T11:16:29;41.00;;;28.55;;
60464;SDS011;46314;52.392;9.758;2024-02-28T11:18:57;40.13;;;27.88;;
60464;SDS011;46314;52.392;9.758;2024-02-28T11:21:24;40.40;;;29.05;;
60464;SDS011;46314;52.392;9.758;2024-02-28T11:23:50;40.28;;;28.10;;
60464;SDS011;46314;52.392;9.758;2024-02-28T11:26:17;41.53;;;29.75;;
60464;SDS011;46314;52.392;9.758;2024-02-28T11:28:44;41.20;;;29.33;;
60464;SDS011;46314;52.392;9.758;2024-02-28T11:31:10;39.17;;;28.55;;
60464;SDS011;46314;52.392;9.758;2024-02-28T11:33:38;39.42;;;28.27;;
60464;SDS011;46314;52.392;9.758;2024-02-28T11:36:05;41.03;;;28.88;;
60464;SDS011;46314;52.392;9.758;2024-02-28T11:38:34;40.95;;;28.10;;
60464;SDS011;46314;52.392;9.758;2024-02-28T11:41:00;40.13;;;26.73;;
60464;SDS011;46314;52.392;9.758;2024-02-28T11:43:27;39.67;;;26.98;;
60464;SDS011;46314;52.392;9.758;2024-02-28T11:45:55;40.20;;;28.88;;
60464;SDS011;46314;52.392;9.758;2024-02-28T11:48:22;41.92;;;28.85;;
60464;SDS011;46314;52.392;9.758;2024-02-28T11:50:51;39.80;;;27.38;;
60464;SDS011;46314;52.392;9.758;2024-02-28T11:53:18;39.65;;;28.23;;
60464;SDS011;46314;52.392;9.758;2024-02-28T11:55:45;40.25;;;26.98;;
60464;SDS011;46314;52.392;9.758;2024-02-28T11:58:11;38.47;;;26.48;;
60464;SDS011;46314;52.392;9.758;2024-02-28T12:00:46;42.60;;;27.67;;
60464;SDS011;46314;52.392;9.758;2024-02-28T12:03:19;42.20;;;28.90;;
60464;SDS011;46314;52.392;9.758;2024-02-28T12:05:46;40.25;;;28.67;;
60464;SDS011;46314;52.392;9.758;2024-02-28T12:08:14;35.20;;;25.77;;
60464;SDS011;46314;52.392;9.758;2024-02-28T12:10:40;38.33;;;27.45;;
60464;SDS011;46314;52.392;9.758;2024-02-28T12:13:07;39.55;;;29.73;;
60464;SDS011;46314;52.392;9.758;2024-02-28T12:15:34;36.28;;;26.88;;
60464;SDS011;46314;52.392;9.758;2024-02-28T12:18:00;34.53;;;26.73;;
60464;SDS011;46314;52.392;9.758;2024-02-28T12:20:33;41.25;;;26.55;;
60464;SDS011;46314;52.392;9.758;2024-02-28T12:23:00;39.47;;;27.85;;
60464;SDS011;46314;52.392;9.758;2024-02-28T12:25:28;37.03;;;26.38;;
60464;SDS011;46314;52.392;9.758;2024-02-28T12:27:54;34.53;;;25.15;;
60464;SDS011;46314;52.392;9.758;2024-02-28T12:30:21;37.65;;;26.88;;
60464;SDS011;46314;52.392;9.758;2024-02-28T12:32:47;35.28;;;26.42;;
60464;SDS011;46314;52.392;9.758;2024-02-28T12:35:14;35.67;;;25.38;;
60464;SDS011;46314;52.392;9.758;2024-02-28T12:37:40;35.35;;;25.65;;
60464;SDS011;46314;52.392;9.758;2024-02-28T12:40:07;35.05;;;24.98;;
60464;SDS011;46314;52.392;9.758;2024-02-28T12:42:36;35.33;;;26.08;;
60464;SDS011;46314;52.392;9.758;2024-02-28T12:45:06;40.10;;;27.88;;
60464;SDS011;46314;52.392;9.758;2024-02-28T12:47:33;41.22;;;27.90;;
60464;SDS011;46314;52.392;9.758;2024-02-28T12:49:59;39.75;;;28.85;;
60464;SDS011;46314;52.392;9.758;2024-02-28T12:52:26;40.05;;;28.25;;
60464;SDS011;46314;52.392;9.758;2024-02-28T12:54:52;42.00;;;28.17;;
60464;SDS011;46314;52.392;9.758;2024-02-28T12:57:19;37.58;;;27.67;;
60464;SDS011;46314;52.392;9.758;2024-02-28T12:59:47;39.35;;;28.50;;
60464;SDS011;46314;52.392;9.758;2024-02-28T13:02:17;39.05;;;28.80;;
60464;SDS011;46314;52.392;9.758;2024-02-28T13:04:43;39.20;;;26.83;;
60464;SDS011;46314;52.392;9.758;2024-02-28T13:07:10;39.45;;;28.13;;
60464;SDS011;46314;52.392;9.758;2024-02-28T13:09:37;42.53;;;28.98;;
60464;SDS011;46314;52.392;9.758;2024-02-28T13:12:04;38.70;;;28.23;;
60464;SDS011;46314;52.392;9.758;2024-02-28T13:14:31;41.25;;;28.65;;
60464;SDS011;46314;52.392;9.758;2024-02-28T13:16:58;37.38;;;26.02;;
60464;SDS011;46314;52.392;9.758;2024-02-28T13:19:30;37.45;;;27.65;;
60464;SDS011;46314;52.392;9.758;2024-02-28T13:21:57;38.25;;;27.67;;
60464;SDS011;46314;52.392;9.758;2024-02-28T13:24:23;35.63;;;27.33;;
60464;SDS011;46314;52.392;9.758;2024-02-28T13:26:50;38.53;;;27.15;;
60464;SDS011;46314;52.392;9.758;2024-02-28T13:29:16;41.08;;;26.67;;
60464;SDS011;46314;52.392;9.758;2024-02-28T13:31:43;40.67;;;29.23;;
60464;SDS011;46314;52.392;9.758;2024-02-28T13:34:11;38.70;;;29.30;;
60464;SDS011;46314;52.392;9.758;2024-02-28T13:36:37;40.80;;;28.23;;
60464;SDS011;46314;52.392;9.758;2024-02-28T13:39:04;38.65;;;26.85;;
60464;SDS011;46314;52.392;9.758;2024-02-28T13:41:30;42.50;;;28.42;;
60464;SDS011;46314;52.392;9.758;2024-02-28T13:43:57;40.65;;;27.55;;
60464;SDS011;46314;52.392;9.758;2024-02-28T13:46:23;40.10;;;27.23;;
60464;SDS011;46314;52.392;9.758;2024-02-28T13:48:50;39.28;;;27.60;;
60464;SDS011;46314;52.392;9.758;2024-02-28T13:51:18;39.53;;;26.67;;
60464;SDS011;46314;52.392;9.758;2024-02-28T13:53:44;40.10;;;28.92;;
60464;SDS011;46314;52.392;9.758;2024-02-28T13:56:11;35.45;;;25.67;;
60464;SDS011;46314;52.392;9.758;2024-02-28T13:58:37;38.42;;;25.10;;
60464;SDS011;46314;52.392;9.758;2024-02-28T14:01:16;36.90;;;25.85;;
60464;SDS011;46314;52.392;9.758;2024-02-28T14:03:43;34.65;;;25.33;;
60464;SDS011;46314;52.392;9.758;2024-02-28T14:06:10;40.45;;;26.85;;
60464;SDS011;46314;52.392;9.758;2024-02-28T14:08:37;36.88;;;27.33;;
60464;SDS011;46314;52.392;9.758;2024-02-28T14:11:08;37.88;;;25.63;;
60464;SDS011;46314;52.392;9.758;2024-02-28T14:13:35;35.78;;;22.33;;
60464;SDS011;46314;52.392;9.758;2024-02-28T14:16:02;33.38;;;21.35;;
60464;SDS011;46314;52.392;9.758;2024-02-28T14:18:28;27.95;;;19.60;;
60464;SDS011;46314;52.392;9.758;2024-02-28T14:20:55;30.67;;;21.10;;